< < Back
Terminal Aerodrome Forecast


Current Version              Previous Versions:   1  2  3  4  5  6  7  8  9  

Terminal Aerodrome Forecast

140
FTUS44 KBMX 260009 AAA
TAFBHM
TAF AMD
KBHM 260009Z 2600/2624 VRB03KT P6SM VCTS FEW060CB
     FM260130 VRB02KT P6SM SCT250
     FM261600 14005KT P6SM SCT050=

Latest METAR

442
SAUS70 KWBC 261600
MTRBHM
METAR KBHM 261553Z 00000KT 10SM FEW037 32/23 A3008 RMK AO2 SLP175
T03170228


USA.gov is the U.S. government's official web portal to all federal, state and local government web resources and services.